Time;durP1;ratioP1;P1;durP2;ratioP2;P2;SDS_P1;SDS_P2;PMS_P1;PMS_P2;Temp;Humidity;BMP_temperature;BMP_pressure;BME280_temperature;BME280_humidity;BME280_pressure;Samples;Min_cycle;Max_cycle;Signal;HPM_P1;HPM_P2
2023/10/14 00:01:36;;;;;;;3.80;1.00;;;;;;;14.08;100.00;100630.75;4997784;28;20436;-69
2023/10/14 00:04:09;;;;;;;5.20;1.00;;;;;;;14.58;100.00;100699.84;4992456;28;20464;-68
2023/10/14 00:06:38;;;;;;;5.80;1.00;;;;;;;14.12;100.00;100640.06;4996875;28;21766;-68
2023/10/14 00:09:13;;;;;;;8.17;1.30;;;;;;;14.55;100.00;100694.91;4990442;28;20939;-69
2023/10/14 00:11:51;;;;;;;6.30;1.23;;;;;;;14.55;100.00;100689.53;4999122;28;20446;-68
2023/10/14 00:14:18;;;;;;;5.00;1.00;;;;;;;14.26;100.00;100648.78;4992532;28;20457;-68
2023/10/14 00:16:51;;;;;;;4.03;1.00;;;;;;;14.66;100.00;100688.75;4993859;28;20433;-68
2023/10/14 00:19:22;;;;;;;4.30;0.90;;;;;;;14.45;100.00;100698.13;4992075;28;20542;-67
2023/10/14 00:21:49;;;;;;;6.30;1.10;;;;;;;14.06;100.00;100649.06;4996076;28;20440;-69
2023/10/14 00:24:27;;;;;;;4.17;0.90;;;;;;;14.18;100.00;100685.00;4997276;28;21013;-69
2023/10/14 00:26:54;;;;;;;4.90;1.13;;;;;;;14.11;100.00;100686.94;4996172;28;20452;-68
2023/10/14 00:29:19;;;;;;;5.10;1.00;;;;;;;14.37;100.00;100722.72;4996723;28;21235;-68
2023/10/14 00:31:51;;;;;;;4.67;1.27;;;;;;;13.71;100.00;100657.75;4997177;28;20444;-69
2023/10/14 00:34:19;;;;;;;5.10;1.30;;;;;;;13.94;100.00;100700.22;4991527;28;20645;-68
2023/10/14 00:36:45;;;;;;;5.67;1.10;;;;;;;13.90;100.00;100734.06;4996673;28;20472;-68
2023/10/14 00:39:16;;;;;;;9.13;1.43;;;;;;;13.97;100.00;100717.78;4996315;28;20830;-69
2023/10/14 00:41:44;;;;;;;8.03;1.60;;;;;;;13.45;100.00;100639.13;5007328;28;20652;-68
2023/10/14 00:44:13;;;;;;;7.67;1.50;;;;;;;13.96;100.00;100705.38;4997041;28;20441;-69
2023/10/14 00:46:42;;;;;;;8.27;1.57;;;;;;;13.69;100.00;100673.31;4998385;28;20962;-68
2023/10/14 00:49:11;;;;;;;6.87;1.53;;;;;;;13.62;100.00;100650.97;4996031;28;20468;-68
2023/10/14 00:51:42;;;;;;;7.17;1.50;;;;;;;13.53;100.00;100655.84;4991156;28;20425;-69
2023/10/14 00:54:28;;;;;;;6.20;1.40;;;;;;;13.74;100.00;100691.50;4993536;28;20493;-68
2023/10/14 00:57:00;;;;;;;8.97;1.63;;;;;;;13.83;100.00;100676.69;4997135;28;20443;-68
2023/10/14 00:59:28;;;;;;;10.00;1.73;;;;;;;13.68;100.00;100651.97;4992101;28;20468;-68
2023/10/14 01:01:58;;;;;;;11.40;2.20;;;;;;;13.42;100.00;100607.25;4990368;28;20479;-68
2023/10/14 01:04:32;;;;;;;9.00;2.03;;;;;;;13.72;100.00;100640.50;4990330;28;20864;-67
2023/10/14 01:09:32;;;;;;;9.10;1.90;;;;;;;13.53;100.00;100598.44;4990748;28;20467;-67
2023/10/14 01:12:04;;;;;;;10.57;2.10;;;;;;;13.06;100.00;100552.28;4992895;28;20934;-68
2023/10/14 01:14:31;;;;;;;8.63;1.60;;;;;;;12.97;100.00;100499.75;4993596;28;21166;-68
2023/10/14 01:16:59;;;;;;;8.03;1.40;;;;;;;13.41;100.00;100520.22;4993191;28;20498;-68
2023/10/14 01:19:24;;;;;;;8.70;2.13;;;;;;;13.23;100.00;100488.69;4995125;28;20876;-68
2023/10/14 01:21:52;;;;;;;7.10;1.37;;;;;;;13.25;100.00;100434.59;4994479;28;20768;-68
2023/10/14 01:24:18;;;;;;;8.13;2.20;;;;;;;13.21;100.00;100423.47;4990333;28;20189;-67
2023/10/14 01:26:56;;;;;;;7.77;1.83;;;;;;;13.20;100.00;100402.16;4990316;28;20450;-69
2023/10/14 01:29:31;;;;;;;10.13;1.90;;;;;;;13.28;100.00;100389.22;4990861;28;20472;-69
2023/10/14 01:32:24;;;;;;;12.87;1.77;;;;;;;12.91;100.00;100396.50;4994829;28;20443;-68
2023/10/14 01:34:59;;;;;;;8.03;2.00;;;;;;;13.33;100.00;100410.91;5003052;28;20509;-68
2023/10/14 01:37:27;;;;;;;11.23;1.90;;;;;;;12.67;100.00;100298.66;4994565;28;20443;-67
2023/10/14 01:40:07;;;;;;;7.53;1.90;;;;;;;12.86;100.00;100318.28;4997381;28;20508;-68
2023/10/14 01:42:33;;;;;;;6.73;2.00;;;;;;;13.27;100.00;100365.22;5004324;28;21410;-68
2023/10/14 01:44:59;;;;;;;17.47;2.33;;;;;;;13.42;100.00;100359.41;4997042;28;20453;-68
2023/10/14 01:47:25;;;;;;;8.43;2.00;;;;;;;13.36;100.00;100339.59;4997248;28;20273;-69
2023/10/14 01:49:51;;;;;;;8.73;2.03;;;;;;;13.17;100.00;100311.88;4997738;28;20313;-68
2023/10/14 01:52:19;;;;;;;6.20;1.80;;;;;;;12.93;100.00;100258.97;4999740;28;20439;-69
2023/10/14 01:54:47;;;;;;;10.70;2.17;;;;;;;13.22;100.00;100349.72;4992727;28;20570;-67
2023/10/14 01:57:15;;;;;;;11.00;2.00;;;;;;;13.08;100.00;100316.75;4995092;28;21187;-69
2023/10/14 01:59:42;;;;;;;7.03;1.70;;;;;;;13.32;100.00;100333.03;4993215;28;20452;-68
2023/10/14 02:02:09;;;;;;;10.83;2.40;;;;;;;13.03;100.00;100278.09;4995725;28;20436;-68
2023/10/14 02:04:36;;;;;;;8.57;1.63;;;;;;;13.00;100.00;100244.38;4992745;28;20515;-68
2023/10/14 02:07:26;;;;;;;8.27;2.20;;;;;;;13.14;100.00;100271.94;5002794;28;20443;-68
2023/10/14 02:09:55;;;;;;;11.43;1.97;;;;;;;12.72;100.00;100217.25;4993957;28;20562;-68
2023/10/14 02:12:20;;;;;;;10.80;1.97;;;;;;;13.25;100.00;100273.00;4998638;28;20584;-68
2023/10/14 02:14:56;;;;;;;10.83;2.23;;;;;;;13.27;100.00;100269.06;4996592;28;20440;-68
2023/10/14 02:17:23;;;;;;;13.17;2.77;;;;;;;13.17;100.00;100271.47;4997736;28;20189;-68
2023/10/14 02:19:50;;;;;;;8.90;1.90;;;;;;;12.28;100.00;100165.47;4997212;28;20922;-68
2023/10/14 02:22:21;;;;;;;8.53;2.03;;;;;;;12.87;100.00;100261.53;4992426;28;20436;-68
2023/10/14 02:24:48;;;;;;;8.40;2.00;;;;;;;12.89;100.00;100270.19;4997350;28;20953;-68
2023/10/14 02:27:14;;;;;;;7.20;1.90;;;;;;;12.93;100.00;100269.75;4998048;28;20591;-68
2023/10/14 02:29:43;;;;;;;9.13;2.33;;;;;;;12.75;100.00;100297.50;5010311;23;20491;-69
2023/10/14 02:32:12;;;;;;;8.13;1.80;;;;;;;12.56;100.00;100304.78;4983898;28;20471;-70
2023/10/14 02:34:44;;;;;;;8.10;1.60;;;;;;;12.33;100.00;100259.75;4984743;28;20461;-70
2023/10/14 02:37:13;;;;;;;6.17;2.00;;;;;;;12.93;100.00;100369.34;4983423;28;21120;-69
2023/10/14 02:39:38;;;;;;;8.77;1.80;;;;;;;12.11;100.00;100284.34;4981139;28;20967;-70
2023/10/14 02:44:32;;;;;;;11.10;1.90;;;;;;;12.69;100.00;100414.94;4985185;28;20562;-70
2023/10/14 02:47:04;;;;;;;5.77;1.53;;;;;;;12.35;100.00;100384.03;4982130;28;20196;-70
2023/10/14 02:49:36;;;;;;;9.90;2.53;;;;;;;12.23;100.00;100340.91;4979388;28;20470;-70
2023/10/14 02:52:08;;;;;;;8.40;1.90;;;;;;;12.82;100.00;100449.81;4981077;28;20433;-70
2023/10/14 02:54:35;;;;;;;8.83;1.40;;;;;;;12.69;100.00;100446.41;4979595;28;20936;-70
2023/10/14 02:57:12;;;;;;;13.30;2.57;;;;;;;12.73;100.00;100435.00;4981831;28;21005;-70
2023/10/14 03:07:29;;;;;;;9.30;2.27;;;;;;;12.23;100.00;100375.88;4984144;28;20444;-69
2023/10/14 03:09:58;;;;;;;8.60;2.10;;;;;;;12.77;100.00;100478.41;4982525;28;20483;-70
2023/10/14 03:12:27;;;;;;;7.13;1.50;;;;;;;12.51;100.00;100442.66;4983245;28;20451;-70
2023/10/14 03:14:53;;;;;;;8.70;2.10;;;;;;;11.96;100.00;100384.16;4982730;28;20500;-71
2023/10/14 03:17:25;;;;;;;8.00;1.70;;;;;;;12.57;100.00;100489.38;4980475;28;20871;-70
2023/10/14 03:19:54;;;;;;;7.30;1.90;;;;;;;12.59;100.00;100488.09;4978969;28;20821;-71
2023/10/14 03:22:25;;;;;;;10.20;2.07;;;;;;;12.77;100.00;100505.34;4984325;28;20807;-70
2023/10/14 03:24:51;;;;;;;9.30;1.97;;;;;;;12.21;100.00;100466.69;4981473;28;20456;-71
2023/10/14 03:27:21;;;;;;;7.00;1.80;;;;;;;12.17;100.00;100460.09;4981661;28;20826;-70
2023/10/14 03:29:54;;;;;;;9.80;1.90;;;;;;;12.60;100.00;100527.41;4977920;28;20213;-70
2023/10/14 03:32:32;;;;;;;10.23;2.33;;;;;;;12.56;100.00;100555.81;4979230;28;20446;-70
2023/10/14 03:34:59;;;;;;;9.60;1.90;;;;;;;12.12;100.00;100479.59;4981032;28;20441;-70
2023/10/14 03:37:27;;;;;;;7.30;1.73;;;;;;;12.65;100.00;100553.66;4982425;28;20440;-70
2023/10/14 03:40:37;;;;;;;8.60;1.93;;;;;;;12.60;100.00;100572.31;4982689;28;20919;-70
2023/10/14 03:42:52;;;;;;;11.40;2.23;;;;;;;12.33;100.00;100529.50;4980486;28;20459;-70
2023/10/14 03:45:21;;;;;;;7.30;1.63;;;;;;;12.68;100.00;100565.88;4983308;28;20459;-70
2023/10/14 03:47:52;;;;;;;6.30;1.80;;;;;;;12.65;100.00;100554.50;4980750;28;20528;-71
2023/10/14 03:50:23;;;;;;;12.60;2.03;;;;;;;11.96;100.00;100464.78;4979663;28;20505;-70
2023/10/14 03:52:51;;;;;;;13.37;2.53;;;;;;;12.61;100.00;100579.34;4980819;28;20471;-70
2023/10/14 03:55:24;;;;;;;11.07;2.30;;;;;;;12.19;100.00;100517.19;4976633;28;20448;-70
2023/10/14 03:58:03;;;;;;;14.13;2.23;;;;;;;12.29;100.00;100557.84;4980624;28;20472;-69
2023/10/14 04:00:37;;;;;;;8.70;1.80;;;;;;;12.62;100.00;100589.91;4982904;28;20442;-70
2023/10/14 04:03:34;;;;;;;7.77;1.70;;;;;;;12.36;100.00;100572.09;4979936;28;20467;-69
2023/10/14 04:05:59;;;;;;;9.13;1.60;;;;;;;12.25;100.00;100559.31;4980383;28;20506;-70
2023/10/14 04:08:31;;;;;;;5.73;1.50;;;;;;;11.95;100.00;100541.09;4983216;28;20457;-69
2023/10/14 04:11:15;;;;;;;9.03;2.00;;;;;;;12.35;100.00;100585.72;4983492;28;20478;-70
2023/10/14 04:16:37;;;;;;;7.73;1.67;;;;;;;12.05;100.00;100596.25;4979154;28;20943;-70
2023/10/14 04:19:15;;;;;;;10.70;2.27;;;;;;;11.81;100.00;100544.88;4977123;28;20531;-70
2023/10/14 04:21:42;;;;;;;7.93;1.80;;;;;;;12.36;100.00;100592.78;4978882;28;20489;-70
2023/10/14 04:26:51;;;;;;;8.53;2.03;;;;;;;12.08;100.00;100560.88;4982317;28;20444;-70
2023/10/14 04:29:37;;;;;;;9.03;1.57;;;;;;;12.33;100.00;100577.91;4981341;28;20526;-71
2023/10/14 04:32:13;;;;;;;10.23;2.27;;;;;;;12.18;100.00;100596.19;4977211;28;20198;-70
2023/10/14 04:34:44;;;;;;;5.37;1.43;;;;;;;12.06;100.00;100585.28;4975568;28;20570;-70
2023/10/14 04:37:16;;;;;;;7.83;2.10;;;;;;;12.10;100.00;100617.94;4977360;28;20492;-70
2023/10/14 04:39:44;;;;;;;10.30;2.13;;;;;;;11.81;100.00;100597.78;4979647;28;20448;-70
2023/10/14 04:44:59;;;;;;;6.60;1.37;;;;;;;12.04;100.00;100626.88;4980109;28;20449;-70
2023/10/14 04:47:47;;;;;;;8.40;1.67;;;;;;;12.05;100.00;100613.22;4979993;28;20548;-70
2023/10/14 04:50:21;;;;;;;7.03;1.30;;;;;;;12.02;100.00;100610.13;4981536;28;20465;-70
2023/10/14 04:52:49;;;;;;;7.67;1.40;;;;;;;11.93;100.00;100596.94;4979948;28;20471;-70
2023/10/14 05:00:48;;;;;;;11.33;2.60;;;;;;;11.37;100.00;100576.03;4982062;28;21123;-72
2023/10/14 05:03:19;;;;;;;9.53;1.93;;;;;;;11.91;100.00;100643.88;4982271;28;20902;-72
2023/10/14 05:06:03;;;;;;;7.37;1.77;;;;;;;11.95;100.00;100656.69;4983577;28;20436;-71
2023/10/14 05:08:44;;;;;;;9.47;2.10;;;;;;;11.82;100.00;100656.69;4987084;28;20463;-72
2023/10/14 05:11:14;;;;;;;8.20;1.93;;;;;;;11.28;100.00;100553.94;4983497;28;20449;-71
2023/10/14 05:13:44;;;;;;;6.40;1.70;;;;;;;11.86;100.00;100667.84;4986817;28;20467;-71
2023/10/14 05:16:20;;;;;;;6.53;1.50;;;;;;;11.38;100.00;100611.75;4985453;28;20444;-71
2023/10/14 05:19:07;;;;;;;10.13;1.73;;;;;;;11.84;100.00;100657.31;4981521;28;20467;-72
2023/10/14 05:21:36;;;;;;;12.40;1.63;;;;;;;11.57;100.00;100648.50;4986657;28;20524;-72
2023/10/14 05:24:06;;;;;;;9.97;2.10;;;;;;;11.52;100.00;100634.84;4984893;28;20437;-71
2023/10/14 05:26:36;;;;;;;10.00;2.57;;;;;;;11.59;100.00;100634.84;4981767;28;20909;-71
2023/10/14 05:29:16;;;;;;;11.63;2.00;;;;;;;11.52;100.00;100659.84;4986733;28;20473;-71
2023/10/14 05:31:45;;;;;;;8.80;1.37;;;;;;;11.25;100.00;100613.44;4985084;28;20460;-71
2023/10/14 05:34:11;;;;;;;10.90;2.43;;;;;;;11.59;100.00;100618.72;4988047;28;20436;-71
2023/10/14 05:36:37;;;;;;;7.30;1.90;;;;;;;11.29;100.00;100570.88;4987012;28;20807;-71
2023/10/14 05:39:03;;;;;;;12.03;2.20;;;;;;;11.57;100.00;100620.78;4981962;28;20293;-72
2023/10/14 05:41:30;;;;;;;11.37;2.03;;;;;;;11.60;100.00;100599.72;4983151;28;20703;-71
2023/10/14 05:43:55;;;;;;;10.23;1.80;;;;;;;11.16;100.00;100539.50;4982682;28;20447;-71
2023/10/14 05:46:21;;;;;;;10.03;2.37;;;;;;;11.56;100.00;100606.53;4987065;28;20437;-72
2023/10/14 05:48:46;;;;;;;9.33;1.90;;;;;;;11.37;100.00;100594.81;4988116;28;20239;-72
2023/10/14 05:51:15;;;;;;;6.90;1.90;;;;;;;11.60;100.00;100631.97;4983248;28;20193;-71
2023/10/14 05:53:42;;;;;;;8.30;1.50;;;;;;;11.09;100.00;100563.66;4981963;28;20181;-72
2023/10/14 05:56:14;;;;;;;10.90;2.37;;;;;;;11.56;100.00;100627.19;4982928;28;20441;-72
2023/10/14 05:58:45;;;;;;;10.80;2.50;;;;;;;11.17;100.00;100559.94;4983833;28;20491;-72
2023/10/14 06:01:13;;;;;;;15.57;3.27;;;;;;;11.67;100.00;100648.03;4982323;28;20444;-72
2023/10/14 06:03:40;;;;;;;6.93;1.87;;;;;;;11.36;100.00;100637.97;4986574;28;20441;-71
2023/10/14 06:06:09;;;;;;;11.07;2.90;;;;;;;11.75;100.00;100688.94;4987666;28;20491;-72
2023/10/14 06:08:38;;;;;;;10.80;2.80;;;;;;;11.88;100.00;100681.91;4979100;28;20488;-71
2023/10/14 06:11:07;;;;;;;10.03;2.73;;;;;;;11.64;100.00;100683.41;4978267;28;20449;-72
2023/10/14 06:13:36;;;;;;;12.07;2.53;;;;;;;11.49;100.00;100619.97;4978213;28;20492;-72
2023/10/14 06:16:09;;;;;;;8.67;2.17;;;;;;;11.56;100.00;100646.00;4981903;28;20448;-71
2023/10/14 06:18:39;;;;;;;9.07;2.33;;;;;;;11.81;100.00;100673.84;4982018;28;20600;-71
2023/10/14 06:21:06;;;;;;;11.70;2.67;;;;;;;11.82;100.00;100671.97;4976270;28;20935;-72
2023/10/14 06:23:32;;;;;;;7.00;2.10;;;;;;;11.35;100.00;100613.00;4975798;28;20475;-72
2023/10/14 06:25:59;;;;;;;8.93;2.30;;;;;;;11.87;100.00;100666.84;4980636;28;20453;-72
2023/10/14 06:28:27;;;;;;;11.87;2.37;;;;;;;11.85;100.00;100672.41;4985246;28;20468;-72
2023/10/14 06:30:53;;;;;;;16.57;2.70;;;;;;;11.96;100.00;100679.81;4981388;28;20515;-72
2023/10/14 06:33:19;;;;;;;10.07;2.53;;;;;;;11.84;100.00;100657.31;4971544;28;20458;-72
2023/10/14 06:35:46;;;;;;;13.17;3.27;;;;;;;11.85;100.00;100663.50;4978646;28;20869;-72
2023/10/14 06:38:17;;;;;;;7.73;1.70;;;;;;;11.96;100.00;100684.38;4988165;28;20206;-71
2023/10/14 06:40:52;;;;;;;13.53;2.83;;;;;;;11.86;100.00;100695.59;4978957;28;20597;-72
2023/10/14 06:43:19;;;;;;;12.83;2.40;;;;;;;11.70;100.00;100679.88;4978389;28;20440;-72
2023/10/14 06:45:46;;;;;;;10.10;1.97;;;;;;;11.77;100.00;100678.81;4976192;28;20476;-72
2023/10/14 06:48:12;;;;;;;8.87;2.80;;;;;;;11.62;100.00;100634.41;4976933;28;20456;-71
2023/10/14 06:50:38;;;;;;;11.77;3.00;;;;;;;11.84;100.00;100697.63;4993813;28;20465;-72
2023/10/14 06:53:11;;;;;;;8.80;2.37;;;;;;;11.87;100.00;100709.84;4976784;28;20197;-72
2023/10/14 06:55:37;;;;;;;10.40;2.53;;;;;;;11.77;100.00;100688.72;4995583;28;20440;-72
2023/10/14 06:58:08;;;;;;;9.37;2.47;;;;;;;11.87;100.00;100720.59;4977640;28;20475;-71
2023/10/14 07:00:37;;;;;;;8.20;2.37;;;;;;;12.07;100.00;100718.69;4973253;28;20958;-72
2023/10/14 07:03:06;;;;;;;11.30;2.53;;;;;;;12.04;100.00;100711.03;4978099;28;20444;-72
2023/10/14 07:05:43;;;;;;;11.83;2.27;;;;;;;12.04;100.00;100697.59;4977808;28;20440;-71
2023/10/14 07:08:11;;;;;;;13.20;2.60;;;;;;;11.99;100.00;100690.16;4990385;28;20462;-72
2023/10/14 07:10:37;;;;;;;11.03;3.13;;;;;;;12.20;100.00;100709.72;4976537;28;20476;-72
2023/10/14 07:13:03;;;;;;;12.93;2.87;;;;;;;12.20;100.00;100694.41;4979084;28;20449;-71
2023/10/14 07:15:32;;;;;;;11.47;2.70;;;;;;;12.32;100.00;100707.19;4974636;28;20565;-72
2023/10/14 07:17:58;;;;;;;9.40;2.00;;;;;;;12.29;100.00;100708.44;4971752;28;20468;-72
2023/10/14 07:20:29;;;;;;;10.57;2.43;;;;;;;12.46;100.00;100695.34;4974203;28;20448;-72
2023/10/14 07:22:59;;;;;;;10.43;2.87;;;;;;;11.53;100.00;100555.91;4976550;28;20870;-72
2023/10/14 07:25:25;;;;;;;14.47;2.17;;;;;;;12.01;100.00;100668.44;4977224;28;20436;-71
2023/10/14 07:27:51;;;;;;;8.90;2.10;;;;;;;12.11;100.00;100709.13;4976825;28;20482;-72
2023/10/14 07:30:18;;;;;;;8.93;2.10;;;;;;;12.09;100.00;100715.75;4972221;28;20523;-72
2023/10/14 07:32:46;;;;;;;10.10;2.30;;;;;;;11.99;100.00;100717.03;4977273;28;20190;-72
2023/10/14 07:35:13;;;;;;;6.47;1.60;;;;;;;11.89;100.00;100680.88;4974774;28;21170;-72
2023/10/14 07:37:45;;;;;;;7.33;1.63;;;;;;;12.00;100.00;100674.84;4988387;28;20460;-72
2023/10/14 07:40:27;;;;;;;6.97;1.50;;;;;;;11.81;100.00;100667.66;4971792;28;20441;-72
2023/10/14 07:43:13;;;;;;;5.83;1.67;;;;;;;12.39;100.00;100692.69;4976338;28;20849;-72
2023/10/14 07:45:43;;;;;;;10.37;2.23;;;;;;;11.72;100.00;100607.94;4977677;28;21012;-71
2023/10/14 07:48:10;;;;;;;8.47;1.43;;;;;;;12.15;100.00;100768.69;4975989;28;20471;-71
2023/10/14 07:50:40;;;;;;;5.10;1.40;;;;;;;11.04;100.00;100703.03;4976354;28;20846;-71
2023/10/14 07:53:12;;;;;;;8.10;1.80;;;;;;;11.46;100.00;100795.00;4976599;28;20459;-72
2023/10/14 07:55:47;;;;;;;8.80;1.63;;;;;;;10.59;100.00;100707.28;4980341;28;20453;-72
2023/10/14 07:58:13;;;;;;;4.60;1.20;;;;;;;11.57;100.00;100819.56;4979443;28;20996;-72
2023/10/14 08:00:48;;;;;;;7.50;1.30;;;;;;;11.50;100.00;100836.50;4985049;28;20421;-72
2023/10/14 08:03:16;;;;;;;8.40;2.20;;;;;;;11.61;100.00;100802.03;4982987;28;20440;-72
2023/10/14 08:05:45;;;;;;;6.27;1.50;;;;;;;11.33;100.00;100808.38;4996832;28;20444;-72
2023/10/14 08:08:11;;;;;;;4.60;1.40;;;;;;;11.60;100.00;100841.50;4978703;28;20503;-72
2023/10/14 08:10:41;;;;;;;5.53;1.47;;;;;;;11.77;100.00;100832.00;4976682;28;20541;-71
2023/10/14 08:13:08;;;;;;;7.27;1.57;;;;;;;11.15;100.00;100733.00;4976340;28;20437;-71
2023/10/14 08:15:35;;;;;;;12.83;2.17;;;;;;;12.05;100.00;100840.91;4980608;28;20456;-72
2023/10/14 08:18:04;;;;;;;8.67;2.20;;;;;;;12.21;100.00;100853.91;4975970;28;20547;-72
2023/10/14 08:20:38;;;;;;;9.97;2.63;;;;;;;12.07;100.00;100833.47;4972183;28;20437;-72
2023/10/14 08:23:09;;;;;;;7.73;2.00;;;;;;;12.07;100.00;100822.69;4976868;28;20481;-72
2023/10/14 08:25:39;;;;;;;9.80;2.37;;;;;;;12.03;100.00;100872.53;4978796;28;20453;-72
2023/10/14 08:28:13;;;;;;;7.80;2.10;;;;;;;12.32;100.00;100879.31;4981393;28;20877;-72
2023/10/14 08:30:45;;;;;;;12.70;2.20;;;;;;;11.71;100.00;100754.88;5016861;23;20487;-75
2023/10/14 08:33:14;;;;;;;7.60;2.03;;;;;;;10.20;100.00;100526.50;4995644;28;20806;-75
2023/10/14 08:35:44;;;;;;;7.30;1.50;;;;;;;10.10;100.00;100534.13;4999726;28;20480;-75
2023/10/14 08:38:13;;;;;;;9.23;2.10;;;;;;;9.61;100.00;100469.06;4998858;28;20463;-75
2023/10/14 08:40:43;;;;;;;7.47;1.30;;;;;;;11.36;100.00;100738.16;4995150;28;20494;-76
2023/10/14 08:43:16;;;;;;;7.57;1.87;;;;;;;9.80;100.00;100486.22;4997230;28;20483;-79
2023/10/14 08:45:47;;;;;;;7.33;2.03;;;;;;;9.90;100.00;100453.69;5000262;28;20476;-75
2023/10/14 08:48:15;;;;;;;9.70;2.10;;;;;;;10.43;100.00;100528.00;4999206;28;20453;-75
2023/10/14 08:50:41;;;;;;;8.80;1.93;;;;;;;9.90;100.00;100406.28;4996893;28;20475;-76
2023/10/14 08:53:15;;;;;;;6.70;1.93;;;;;;;10.29;100.00;100433.34;4993413;28;21225;-76
2023/10/14 08:55:44;;;;;;;12.90;2.90;;;;;;;11.70;100.00;100686.06;5004211;28;20451;-76
2023/10/14 08:58:13;;;;;;;7.93;2.03;;;;;;;11.40;100.00;100572.06;5001518;28;20460;-75
2023/10/14 09:00:40;;;;;;;9.30;1.97;;;;;;;11.11;100.00;100413.16;4999753;28;20496;-75
2023/10/14 09:03:07;;;;;;;8.53;1.73;;;;;;;12.10;100.00;100572.25;5001102;28;20440;-76
2023/10/14 09:05:44;;;;;;;7.87;2.43;;;;;;;12.02;100.00;100661.19;4997528;28;20449;-76
2023/10/14 09:08:12;;;;;;;8.10;1.60;;;;;;;11.25;100.00;100516.78;4992385;28;20766;-75
2023/10/14 09:10:37;;;;;;;9.63;1.87;;;;;;;11.24;100.00;100476.69;4992792;28;20480;-75
2023/10/14 09:13:06;;;;;;;11.43;2.00;;;;;;;11.58;100.00;100536.50;4998122;28;20786;-74
2023/10/14 09:15:40;;;;;;;9.37;1.80;;;;;;;11.56;100.00;100487.53;4997320;28;20196;-75
2023/10/14 09:18:18;;;;;;;11.90;2.47;;;;;;;12.52;100.00;100608.38;4996360;28;20460;-76
2023/10/14 09:20:45;;;;;;;9.30;1.67;;;;;;;11.03;100.00;100341.75;5001813;28;21143;-74
2023/10/14 09:23:19;;;;;;;10.43;1.77;;;;;;;13.31;100.00;100713.88;4998987;28;20443;-74
2023/10/14 09:25:44;;;;;;;10.30;2.23;;;;;;;13.29;100.00;100748.28;4997502;28;20632;-74
2023/10/14 09:28:11;;;;;;;8.23;1.70;;;;;;;12.18;100.00;100693.00;4993763;28;20547;-75
2023/10/14 09:30:37;;;;;;;5.80;1.83;;;;;;;10.74;100.00;100444.22;4996576;28;20333;-74
2023/10/14 09:33:03;;;;;;;8.60;2.03;;;;;;;10.73;100.00;100512.31;4993422;28;20485;-74
2023/10/14 09:35:30;;;;;;;7.03;1.67;;;;;;;10.87;100.00;100489.78;5000126;28;20440;-74
2023/10/14 09:37:59;;;;;;;9.67;2.47;;;;;;;12.13;100.00;100671.28;4997404;28;20447;-76
2023/10/14 09:40:25;;;;;;;9.57;2.20;;;;;;;12.47;100.00;100747.25;4997964;28;20440;-74
2023/10/14 09:42:52;;;;;;;7.60;1.53;;;;;;;11.07;100.00;100428.03;4997091;28;20444;-74
2023/10/14 09:45:19;;;;;;;9.90;2.40;;;;;;;12.16;100.00;100662.81;4996519;28;20451;-75
2023/10/14 09:47:46;;;;;;;10.20;2.33;;;;;;;12.72;100.00;100732.03;4994098;28;20448;-74
2023/10/14 09:50:13;;;;;;;10.30;2.33;;;;;;;11.60;100.00;100547.81;5002679;28;20563;-75
2023/10/14 09:52:42;;;;;;;8.67;1.87;;;;;;;11.39;100.00;100511.34;5002453;28;20443;-75
2023/10/14 09:55:13;;;;;;;11.80;2.43;;;;;;;11.33;100.00;100513.00;4999014;28;20864;-75
2023/10/14 09:57:42;;;;;;;10.73;2.13;;;;;;;10.90;100.00;100424.16;5002520;28;20437;-75
2023/10/14 10:00:10;;;;;;;7.10;1.83;;;;;;;10.27;100.00;100263.84;5004333;28;20530;-75
2023/10/14 10:02:38;;;;;;;12.90;2.53;;;;;;;11.81;100.00;100501.03;5005522;28;20428;-75
2023/10/14 10:05:06;;;;;;;7.13;2.00;;;;;;;11.38;100.00;100384.31;4994708;28;20459;-75
2023/10/14 10:07:59;;;;;;;13.80;1.80;;;;;;;11.29;100.00;100313.94;4999654;28;20452;-75
2023/10/14 10:10:30;;;;;;;5.73;1.83;;;;;;;12.89;100.00;100485.53;4998216;28;20476;-74
2023/10/14 10:12:56;;;;;;;9.37;1.97;;;;;;;13.90;100.00;100585.75;4995404;28;20530;-74
2023/10/14 10:15:25;;;;;;;6.37;1.70;;;;;;;13.30;100.00;100432.09;5004137;28;20478;-74
2023/10/14 10:17:56;;;;;;;6.80;1.60;;;;;;;13.81;100.00;100519.72;4999313;28;20814;-74
2023/10/14 10:20:31;;;;;;;8.87;2.17;;;;;;;12.91;100.00;100485.31;5003497;28;20420;-74
2023/10/14 10:22:58;;;;;;;6.60;1.63;;;;;;;12.83;100.00;100512.53;4998815;28;20439;-74
2023/10/14 10:25:50;;;;;;;6.70;1.70;;;;;;;13.15;100.00;100555.50;5002094;28;20468;-74
2023/10/14 10:28:27;;;;;;;6.93;2.10;;;;;;;13.46;100.00;100568.06;5004531;28;20666;-74
2023/10/14 10:30:55;;;;;;;10.77;2.20;;;;;;;12.94;100.00;100454.44;5001236;28;20456;-74
2023/10/14 10:33:23;;;;;;;7.03;1.90;;;;;;;13.32;100.00;100440.78;5005565;28;20822;-74
2023/10/14 10:35:56;;;;;;;7.57;1.70;;;;;;;13.85;100.00;100483.16;4999904;28;20453;-73
2023/10/14 10:38:23;;;;;;;9.93;2.10;;;;;;;13.40;100.00;100404.63;5004734;28;20471;-74
2023/10/14 10:41:27;;;;;;;6.00;1.40;;;;;;;14.36;100.00;100489.06;5002542;28;20528;-74
2023/10/14 10:44:05;;;;;;;6.20;1.43;;;;;;;13.86;100.00;100398.56;4992985;28;20472;-74
2023/10/14 10:46:40;;;;;;;8.67;1.50;;;;;;;14.40;100.00;100461.38;5008853;28;20439;-74
2023/10/14 10:49:07;;;;;;;7.30;1.60;;;;;;;13.70;100.00;100361.47;4998017;28;20872;-74
2023/10/14 10:52:12;;;;;;;7.23;2.10;;;;;;;14.88;100.00;100437.94;5001741;28;20531;-74
2023/10/14 10:54:42;;;;;;;6.40;1.50;;;;;;;14.20;100.00;100361.91;4996069;28;20436;-74
2023/10/14 10:57:08;;;;;;;6.57;1.43;;;;;;;13.64;100.00;100367.78;5002462;28;20483;-74
2023/10/14 10:59:37;;;;;;;16.67;2.43;;;;;;;13.59;100.00;100514.00;5003514;28;20456;-74
2023/10/14 11:02:06;;;;;;;8.20;1.47;;;;;;;13.08;100.00;100574.41;5002933;28;20193;-74
2023/10/14 11:04:32;;;;;;;8.43;1.80;;;;;;;12.96;100.00;100576.16;5004041;28;20433;-74
2023/10/14 11:06:57;;;;;;;11.47;2.20;;;;;;;12.61;100.00;100521.00;5004108;28;20820;-74
2023/10/14 11:09:23;;;;;;;7.77;1.80;;;;;;;12.74;100.00;100540.75;5006386;28;20586;-74
2023/10/14 11:11:48;;;;;;;9.40;2.17;;;;;;;13.06;100.00;100581.88;5004865;28;20734;-74
2023/10/14 11:14:18;;;;;;;8.60;2.43;;;;;;;13.14;100.00;100573.53;5000161;28;20260;-74
2023/10/14 11:16:57;;;;;;;7.13;1.67;;;;;;;12.78;100.00;100480.88;5002756;28;20630;-74
2023/10/14 11:19:26;;;;;;;13.47;2.50;;;;;;;14.06;100.00;100418.97;5017982;28;20457;-74
2023/10/14 11:21:53;;;;;;;11.20;2.00;;;;;;;15.35;100.00;100456.72;5000213;28;20447;-74
2023/10/14 11:24:19;;;;;;;9.37;2.20;;;;;;;15.57;100.00;100452.31;5005935;28;20478;-74
2023/10/14 11:26:45;;;;;;;12.23;1.90;;;;;;;14.34;100.00;100404.81;5001452;28;20429;-75
2023/10/14 11:29:11;;;;;;;11.90;2.20;;;;;;;14.34;100.00;100508.16;4998092;28;20210;-74
2023/10/14 11:31:39;;;;;;;9.20;1.93;;;;;;;13.91;100.00;100497.59;4997756;28;20197;-74
2023/10/14 11:34:06;;;;;;;11.57;2.40;;;;;;;14.11;100.00;100425.31;5005878;28;20455;-73
2023/10/14 11:36:32;;;;;;;10.07;2.30;;;;;;;14.66;100.00;100530.28;5001716;28;20479;-74
2023/10/14 11:38:58;;;;;;;8.77;2.00;;;;;;;15.59;100.00;100542.13;5000543;28;20500;-74
2023/10/14 11:41:27;;;;;;;8.80;2.10;;;;;;;16.68;100.00;100868.00;5005781;28;20421;-74
2023/10/14 11:43:53;;;;;;;13.13;2.10;;;;;;;15.97;100.00;100669.75;5001249;28;20181;-73
2023/10/14 11:46:19;;;;;;;7.90;2.00;;;;;;;16.54;100.00;100591.25;4996399;28;20990;-74
2023/10/14 11:48:47;;;;;;;11.43;1.83;;;;;;;15.82;100.00;100608.00;5001411;28;20452;-74
2023/10/14 11:51:21;;;;;;;7.10;1.83;;;;;;;16.34;100.00;100601.72;4999590;28;20197;-74
2023/10/14 11:53:52;;;;;;;10.63;2.23;;;;;;;16.31;100.00;100611.13;5000265;28;20443;-74
2023/10/14 11:56:18;;;;;;;9.83;2.13;;;;;;;16.33;100.00;100624.44;4995695;28;20887;-74